Time;durP1;ratioP1;P1;durP2;ratioP2;P2;SDS_P1;SDS_P2;PMS_P1;PMS_P2;Temp;Humidity;BMP_temperature;BMP_pressure;BME280_temperature;BME280_humidity;BME280_pressure;Samples;Min_cycle;Max_cycle;Signal;HPM_P1;HPM_P2
2021/07/21 00:00:50;;;;;;;1.87;1.03;;;;;;;16.10;60.03;99371.25;5070334;28;42865;-86
2021/07/21 00:03:18;;;;;;;2.53;1.03;;;;;;;16.20;60.12;99386.56;5072101;28;42383;-86
2021/07/21 00:05:47;;;;;;;1.37;1.10;;;;;;;16.16;60.43;99381.50;5049365;28;40046;-84
2021/07/21 00:08:15;;;;;;;1.97;1.20;;;;;;;16.05;60.30;99373.44;5085667;28;41999;-85
2021/07/21 00:10:49;;;;;;;0.90;0.90;;;;;;;16.11;60.24;99383.66;5072310;28;42941;-84
2021/07/21 00:16:12;;;;;;;2.57;1.70;;;;;;;15.99;60.34;99373.91;5068325;28;40889;-85
2021/07/21 00:18:48;;;;;;;1.60;1.03;;;;;;;15.91;60.26;99365.63;5052341;28;40724;-81
2021/07/21 00:21:19;;;;;;;0.67;0.67;;;;;;;15.97;60.32;99385.66;5070978;28;42054;-82
2021/07/21 00:23:47;;;;;;;1.57;1.30;;;;;;;15.96;60.44;99389.31;5054640;28;41397;-85
2021/07/21 00:26:17;;;;;;;1.10;1.00;;;;;;;15.92;60.21;99390.53;5105843;28;39347;-84
2021/07/21 00:28:45;;;;;;;2.87;1.60;;;;;;;15.88;60.79;99384.56;5050925;28;42559;-84
2021/07/21 00:31:16;;;;;;;1.47;0.83;;;;;;;15.86;60.39;99375.78;5067818;28;41884;-82
2021/07/21 00:33:45;;;;;;;1.67;0.73;;;;;;;15.75;60.32;99365.94;5068165;28;43199;-83
2021/07/21 00:36:13;;;;;;;1.83;0.93;;;;;;;15.82;60.33;99383.19;5051778;28;40184;-84
2021/07/21 00:38:41;;;;;;;1.10;0.80;;;;;;;15.68;60.38;99369.19;5053449;28;41033;-85
2021/07/21 00:41:09;;;;;;;1.37;0.93;;;;;;;15.66;60.82;99355.97;5055450;28;41685;-83
2021/07/21 00:43:38;;;;;;;1.60;1.13;;;;;;;15.72;60.49;99381.31;5054067;28;41476;-82
2021/07/21 00:46:06;;;;;;;1.87;1.23;;;;;;;15.60;61.10;99372.41;5054576;28;40019;-82
2021/07/21 00:48:34;;;;;;;2.83;1.30;;;;;;;15.53;61.04;99364.97;5054941;28;40696;-82
2021/07/21 00:51:05;;;;;;;2.03;1.40;;;;;;;15.55;60.95;99368.41;5071534;28;41846;-85
2021/07/21 00:53:35;;;;;;;1.37;0.97;;;;;;;15.58;60.73;99382.34;5071572;28;42488;-81
2021/07/21 00:56:05;;;;;;;0.87;0.60;;;;;;;15.45;60.65;99369.03;5054524;28;40295;-84
2021/07/21 00:58:34;;;;;;;1.60;1.03;;;;;;;15.40;60.63;99362.34;5054194;28;41006;-85
2021/07/21 01:01:05;;;;;;;2.10;1.53;;;;;;;15.48;60.82;99383.13;5053049;28;41846;-83
2021/07/21 01:03:33;;;;;;;1.73;1.03;;;;;;;15.38;61.00;99367.81;5070043;28;43032;-86
2021/07/21 01:06:02;;;;;;;1.30;0.90;;;;;;;15.41;61.04;99372.06;5070727;28;40170;-83
2021/07/21 01:08:30;;;;;;;1.57;0.97;;;;;;;15.36;60.92;99375.06;5054937;28;40625;-83
2021/07/21 01:11:17;;;;;;;1.43;0.80;;;;;;;15.32;60.64;99378.09;5053261;28;42674;-85
2021/07/21 01:13:52;;;;;;;1.10;0.77;;;;;;;15.19;60.59;99362.13;5040973;28;41821;-82
2021/07/21 01:16:29;;;;;;;0.97;0.93;;;;;;;15.22;60.70;99377.03;5045916;28;38979;-84
2021/07/21 01:19:05;;;;;;;1.37;1.27;;;;;;;15.19;60.64;99380.81;5053500;28;41061;-85
2021/07/21 01:22:08;;;;;;;1.67;0.90;;;;;;;15.04;61.33;99368.56;5054347;28;42735;-84
2021/07/21 01:25:06;;;;;;;1.77;1.17;;;;;;;14.99;61.63;99365.38;5047710;28;41606;-83
2021/07/21 01:27:43;;;;;;;0.83;0.83;;;;;;;15.00;61.68;99369.75;5046693;28;38980;-82
2021/07/21 01:30:15;;;;;;;1.33;1.00;;;;;;;14.96;62.14;99370.97;5048817;28;40701;-83
2021/07/21 01:32:57;;;;;;;1.73;1.10;;;;;;;14.83;62.10;99354.13;5053225;28;42127;-85
2021/07/21 01:35:28;;;;;;;1.40;1.20;;;;;;;14.86;62.01;99364.56;5070981;28;41442;-85
2021/07/21 01:37:58;;;;;;;1.33;0.93;;;;;;;14.83;61.88;99372.81;5053670;28;39869;-84
2021/07/21 01:40:29;;;;;;;1.30;0.97;;;;;;;14.79;62.11;99373.97;5054285;28;40706;-83
2021/07/21 01:43:01;;;;;;;1.20;1.00;;;;;;;14.73;62.16;99370.78;5053741;28;41749;-83
2021/07/21 01:45:33;;;;;;;1.03;0.73;;;;;;;14.71;62.11;99377.19;5053855;28;41518;-81
2021/07/21 01:48:02;;;;;;;0.77;0.77;;;;;;;14.64;62.10;99368.75;5067480;28;39150;-82
2021/07/21 01:50:32;;;;;;;1.03;0.70;;;;;;;14.62;62.43;99362.69;5053761;28;40528;-83
2021/07/21 01:53:01;;;;;;;0.67;0.67;;;;;;;14.55;62.37;99363.25;5053230;28;41685;-83
2021/07/21 01:55:30;;;;;;;1.63;1.00;;;;;;;14.53;62.31;99374.00;5053861;28;41360;-84
2021/07/21 01:58:06;;;;;;;0.70;0.63;;;;;;;14.50;62.29;99376.88;5053671;28;40844;-86
2021/07/21 02:01:00;;;;;;;0.80;0.80;;;;;;;14.46;62.49;99375.41;5065581;28;40958;-83
2021/07/21 02:03:34;;;;;;;2.27;1.17;;;;;;;14.43;62.40;99383.63;5053156;28;43154;-84
2021/07/21 02:06:06;;;;;;;0.93;0.90;;;;;;;14.40;62.48;99377.63;5064554;28;41247;-82
2021/07/21 02:08:35;;;;;;;1.90;1.07;;;;;;;14.39;62.74;99387.41;5051033;28;39913;-83
2021/07/21 02:11:21;;;;;;;1.00;0.67;;;;;;;14.35;62.89;99381.44;5061934;28;41805;-83
2021/07/21 02:13:56;;;;;;;1.40;0.90;;;;;;;14.25;62.72;99363.53;5062572;28;42021;-83
2021/07/21 02:16:44;;;;;;;2.13;1.10;;;;;;;14.19;62.46;99361.31;5054121;28;40950;-84
2021/07/21 02:19:17;;;;;;;1.83;1.17;;;;;;;14.25;62.78;99380.38;5056839;28;38892;-82
2021/07/21 02:21:56;;;;;;;1.00;0.90;;;;;;;14.20;62.50;99365.69;5074217;28;41796;-84
2021/07/21 02:24:25;;;;;;;1.00;0.90;;;;;;;14.15;62.65;99373.13;5057001;28;41939;-85
2021/07/21 02:26:59;;;;;;;1.33;0.70;;;;;;;14.06;62.93;99366.63;5074220;28;42363;-85
2021/07/21 02:29:29;;;;;;;0.93;0.87;;;;;;;14.10;63.05;99380.56;5090607;28;38985;-83
2021/07/21 02:32:06;;;;;;;1.93;0.90;;;;;;;14.12;63.80;99373.31;5048731;28;42027;-85
2021/07/21 02:34:35;;;;;;;1.33;1.00;;;;;;;14.05;64.13;99361.41;5070523;28;41990;-85
2021/07/21 02:37:05;;;;;;;3.23;1.17;;;;;;;14.07;63.80;99375.47;5056700;28;41607;-85
2021/07/21 02:39:44;;;;;;;0.90;0.87;;;;;;;14.03;63.78;99381.00;5055910;28;39659;-83
2021/07/21 02:42:13;;;;;;;1.23;0.93;;;;;;;13.99;63.99;99373.31;5090160;28;40824;-84
2021/07/21 02:44:49;;;;;;;1.40;1.07;;;;;;;13.99;64.03;99367.97;5054521;28;42863;-84
2021/07/21 02:47:19;;;;;;;2.13;1.03;;;;;;;13.87;63.99;99363.50;5056190;28;41645;-82
2021/07/21 02:49:52;;;;;;;1.00;0.83;;;;;;;13.95;64.12;99377.16;5089250;28;41139;-84
2021/07/21 02:52:25;;;;;;;1.87;1.23;;;;;;;13.84;64.09;99364.59;5051934;28;40939;-81
2021/07/21 02:55:04;;;;;;;1.27;0.93;;;;;;;13.77;64.25;99357.94;5055819;28;41875;-83
2021/07/21 02:57:41;;;;;;;1.00;0.90;;;;;;;13.85;64.12;99382.22;5055900;28;41153;-84
2021/07/21 03:00:16;;;;;;;1.27;0.70;;;;;;;13.82;64.49;99382.47;5071841;28;39868;-85
2021/07/21 03:02:53;;;;;;;1.47;0.80;;;;;;;13.66;64.65;99366.66;5053670;28;41161;-83
2021/07/21 03:05:26;;;;;;;1.27;0.70;;;;;;;13.69;64.75;99381.56;5064067;28;41620;-82
2021/07/21 03:08:04;;;;;;;1.20;0.67;;;;;;;13.69;64.72;99386.91;5046073;28;41230;-86
2021/07/21 03:10:34;;;;;;;1.93;1.20;;;;;;;13.60;64.80;99377.69;5072172;28;41106;-86
2021/07/21 03:13:16;;;;;;;1.13;0.90;;;;;;;13.49;64.98;99369.56;5054402;28;41033;-83
2021/07/21 03:15:56;;;;;;;1.10;1.10;;;;;;;13.46;64.76;99374.28;5052126;28;42746;-84
2021/07/21 03:18:41;;;;;;;0.70;0.70;;;;;;;13.53;65.04;99388.88;5073020;28;43100;-83
2021/07/21 03:21:11;;;;;;;0.63;0.63;;;;;;;13.40;65.12;99372.84;5072475;28;39762;-84
2021/07/21 03:23:46;;;;;;;1.03;1.00;;;;;;;13.37;65.28;99369.53;5052198;28;42100;-86
2021/07/21 03:26:50;;;;;;;1.53;0.97;;;;;;;13.41;65.01;99387.00;5052221;28;42206;-87
2021/07/21 03:29:23;;;;;;;1.07;0.90;;;;;;;13.32;65.27;99369.00;5048837;28;41391;-84
2021/07/21 03:31:58;;;;;;;1.37;1.10;;;;;;;13.27;65.60;99372.81;5073144;28;40173;-84
2021/07/21 03:34:27;;;;;;;1.47;1.20;;;;;;;13.26;65.42;99381.72;5055555;28;40855;-80
2021/07/21 03:37:00;;;;;;;1.17;0.63;;;;;;;13.26;65.53;99372.91;5056186;28;42792;-84
2021/07/21 03:39:46;;;;;;;0.77;0.77;;;;;;;13.13;65.56;99351.53;5069289;28;41549;-81
2021/07/21 03:42:28;;;;;;;0.97;0.87;;;;;;;13.23;65.84;99381.94;5055767;28;40933;-81
2021/07/21 03:45:01;;;;;;;1.30;1.10;;;;;;;13.19;65.62;99377.78;5054917;28;41411;-84
2021/07/21 03:47:32;;;;;;;1.80;0.93;;;;;;;13.19;65.52;99376.91;5055387;28;41806;-85
2021/07/21 03:50:04;;;;;;;0.83;0.83;;;;;;;13.12;65.37;99368.44;5052623;28;41540;-86
2021/07/21 03:52:37;;;;;;;0.77;0.67;;;;;;;13.23;65.62;99387.25;5054336;28;40429;-83
2021/07/21 03:55:12;;;;;;;1.47;1.37;;;;;;;13.23;65.42;99392.56;5055599;28;40824;-86
2021/07/21 03:57:57;;;;;;;1.17;0.80;;;;;;;13.22;65.57;99382.91;5053656;28;41886;-81
2021/07/21 04:00:35;;;;;;;0.53;0.53;;;;;;;13.21;65.74;99396.31;5072063;28;43103;-87
2021/07/21 04:03:09;;;;;;;1.10;0.90;;;;;;;13.22;65.60;99398.00;5049548;28;40331;-85
2021/07/21 04:06:02;;;;;;;1.03;0.93;;;;;;;13.33;65.48;99421.25;5061229;28;41065;-84
2021/07/21 04:08:42;;;;;;;0.70;0.70;;;;;;;13.23;65.54;99403.19;5054282;28;41915;-84
2021/07/21 04:11:12;;;;;;;1.10;0.80;;;;;;;13.27;65.75;99404.72;5087799;28;41121;-82
2021/07/21 04:13:42;;;;;;;1.80;1.07;;;;;;;13.39;65.45;99421.69;5050953;28;39271;-84
2021/07/21 04:16:34;;;;;;;0.57;0.57;;;;;;;13.41;65.43;99421.59;5051907;28;40905;-88
2021/07/21 04:19:10;;;;;;;0.77;0.70;;;;;;;13.52;65.91;99417.28;5035595;28;42147;-81
2021/07/21 04:21:41;;;;;;;1.13;0.73;;;;;;;13.48;65.50;99405.13;5075299;28;41144;-84
2021/07/21 04:24:12;;;;;;;1.10;0.87;;;;;;;13.67;65.31;99420.75;5074627;28;39099;-81
2021/07/21 04:26:41;;;;;;;0.73;0.70;;;;;;;13.55;65.25;99400.25;5061905;28;40789;-84
2021/07/21 04:29:13;;;;;;;0.63;0.60;;;;;;;13.79;65.28;99430.59;5072525;28;43165;-84
2021/07/21 04:31:41;;;;;;;0.73;0.60;;;;;;;13.78;65.06;99418.22;5053670;28;41410;-83
2021/07/21 04:34:12;;;;;;;1.30;1.20;;;;;;;13.91;64.93;99427.09;5055406;28;39786;-85
2021/07/21 04:36:42;;;;;;;0.53;0.47;;;;;;;13.98;64.83;99432.84;5054389;28;40636;-81
2021/07/21 04:39:18;;;;;;;0.70;0.70;;;;;;;13.93;64.90;99411.88;5054424;28;42700;-83
2021/07/21 04:42:08;;;;;;;0.90;0.70;;;;;;;14.12;64.87;99426.59;5051799;28;41480;-86
2021/07/21 04:44:43;;;;;;;2.37;0.70;;;;;;;14.08;64.66;99419.78;5034936;28;40397;-83
2021/07/21 04:47:14;;;;;;;0.80;0.80;;;;;;;14.24;64.73;99431.09;5035425;28;40711;-85
2021/07/21 04:49:47;;;;;;;0.50;0.50;;;;;;;14.24;64.99;99415.97;5048178;28;41692;-84
2021/07/21 04:52:21;;;;;;;2.63;1.20;;;;;;;14.41;64.60;99437.97;5043890;28;41318;-83
2021/07/21 04:54:50;;;;;;;0.80;0.73;;;;;;;14.50;64.83;99443.50;5031173;28;39897;-83
2021/07/21 04:57:22;;;;;;;1.27;1.10;;;;;;;14.53;64.83;99432.66;5038341;28;40587;-87
2021/07/21 05:00:07;;;;;;;0.80;0.80;;;;;;;14.53;64.66;99415.78;5044619;28;42099;-87
2021/07/21 05:02:49;;;;;;;1.43;1.00;;;;;;;14.86;64.71;99449.88;5067695;28;42616;-84
2021/07/21 05:05:23;;;;;;;1.60;0.93;;;;;;;14.88;64.39;99434.63;5068257;28;39889;-83
2021/07/21 05:08:03;;;;;;;1.07;0.97;;;;;;;15.07;64.15;99456.41;5050917;28;41157;-85
2021/07/21 05:10:35;;;;;;;1.00;0.67;;;;;;;15.04;63.92;99437.94;5053096;28;41857;-82
2021/07/21 05:13:04;;;;;;;0.80;0.80;;;;;;;15.25;64.06;99459.53;5046080;28;41367;-84
2021/07/21 05:15:37;;;;;;;1.17;1.00;;;;;;;15.38;64.01;99463.03;5057244;28;39242;-86
2021/07/21 05:18:14;;;;;;;1.63;1.10;;;;;;;15.34;63.93;99449.06;5084196;28;41684;-84
2021/07/21 05:20:46;;;;;;;1.30;1.00;;;;;;;15.57;64.04;99467.94;5074604;28;42013;-81
2021/07/21 05:23:17;;;;;;;1.37;0.80;;;;;;;15.69;63.94;99467.88;5084388;28;42670;-81
2021/07/21 05:26:01;;;;;;;0.77;0.70;;;;;;;15.80;63.81;99467.09;5079243;28;39850;-82
2021/07/21 05:28:50;;;;;;;1.03;0.90;;;;;;;15.83;63.53;99458.81;5079686;28;42074;-85
2021/07/21 05:31:36;;;;;;;1.77;1.03;;;;;;;16.01;63.28;99473.50;5072603;28;42119;-80
2021/07/21 05:34:28;;;;;;;1.83;0.93;;;;;;;15.83;63.18;99426.78;5063712;28;42020;-84
2021/07/21 05:37:23;;;;;;;2.50;1.17;;;;;;;16.09;63.23;99459.53;5057735;28;40183;-81
2021/07/21 05:40:08;;;;;;;1.50;1.00;;;;;;;16.27;62.94;99478.69;5060085;28;42002;-80
2021/07/21 05:43:00;;;;;;;1.60;1.00;;;;;;;16.36;62.43;99468.16;5064758;28;43184;-82
2021/07/21 05:45:34;;;;;;;1.27;1.07;;;;;;;16.46;62.55;99462.94;5064784;28;42529;-83
2021/07/21 05:48:02;;;;;;;2.27;1.53;;;;;;;16.62;62.10;99473.31;5064547;28;38716;-83
2021/07/21 05:50:37;;;;;;;1.80;1.47;;;;;;;16.77;62.28;99489.06;5072730;28;40526;-81
2021/07/21 05:53:06;;;;;;;2.50;1.00;;;;;;;16.77;62.02;99478.34;5083893;28;41610;-83
2021/07/21 05:55:44;;;;;;;0.97;0.90;;;;;;;16.82;61.60;99467.28;5075353;28;42065;-82
2021/07/21 05:58:15;;;;;;;1.50;1.40;;;;;;;16.98;61.47;99480.31;5072182;28;39218;-82
2021/07/21 06:00:45;;;;;;;1.17;1.07;;;;;;;17.04;61.37;99471.81;5057174;28;41056;-83
2021/07/21 06:03:21;;;;;;;0.87;0.87;;;;;;;17.13;61.30;99468.41;5081622;28;41780;-85
2021/07/21 06:06:08;;;;;;;1.20;1.10;;;;;;;17.30;60.79;99481.28;5093338;28;41779;-81
2021/07/21 06:08:58;;;;;;;1.50;1.37;;;;;;;17.42;61.38;99487.50;5042523;28;39337;-80
2021/07/21 06:11:29;;;;;;;2.13;1.93;;;;;;;17.58;61.64;99496.81;5048130;28;41508;-77
2021/07/21 06:13:59;;;;;;;2.20;2.10;;;;;;;17.72;61.47;99498.41;5048928;28;43292;-80
2021/07/21 06:16:30;;;;;;;1.57;1.17;;;;;;;17.76;60.94;99485.63;5065868;28;42352;-87
2021/07/21 06:18:58;;;;;;;0.93;0.83;;;;;;;17.86;61.28;99474.00;5051585;28;41845;-82
2021/07/21 06:21:27;;;;;;;1.20;1.10;;;;;;;18.12;61.09;99495.97;5057611;28;42706;-86
2021/07/21 06:24:18;;;;;;;3.93;1.83;;;;;;;18.34;60.44;99495.03;5074133;28;42031;-85
2021/07/21 06:26:50;;;;;;;2.63;1.70;;;;;;;18.65;59.89;99501.38;5072634;28;42355;-81
2021/07/21 06:29:36;;;;;;;2.70;1.00;;;;;;;18.77;58.88;99494.94;5073415;28;40265;-90
2021/07/21 06:32:04;;;;;;;1.30;1.20;;;;;;;18.89;58.96;99490.34;5056355;28;40757;-81
2021/07/21 06:34:33;;;;;;;1.17;0.87;;;;;;;19.12;58.50;99509.81;5073480;28;43864;-83
2021/07/21 06:37:10;;;;;;;1.23;1.03;;;;;;;19.29;58.63;99511.84;5089659;28;42687;-85
2021/07/21 06:39:40;;;;;;;1.23;1.13;;;;;;;19.42;57.90;99514.31;5073809;28;40194;-81
2021/07/21 06:42:10;;;;;;;1.00;0.90;;;;;;;19.56;57.12;99528.25;5084278;28;40747;-86
2021/07/21 06:44:42;;;;;;;1.53;1.43;;;;;;;19.60;57.40;99520.78;5073356;28;43175;-82
2021/07/21 06:47:21;;;;;;;1.93;1.67;;;;;;;19.72;56.43;99520.53;5075457;28;41580;-84
2021/07/21 06:49:52;;;;;;;1.17;1.07;;;;;;;19.96;56.27;99535.44;5075883;28;39353;-83
2021/07/21 06:52:24;;;;;;;1.37;1.27;;;;;;;20.10;55.26;99532.34;5066258;28;41689;-78
2021/07/21 06:54:54;;;;;;;1.17;1.07;;;;;;;20.59;55.08;99557.47;5064436;28;41836;-82
2021/07/21 06:57:41;;;;;;;1.30;1.00;;;;;;;21.06;53.94;99551.16;5099080;28;42245;-80
2021/07/21 07:00:28;;;;;;;1.40;1.30;;;;;;;21.33;53.21;99560.34;5070633;28;39362;-86
2021/07/21 07:03:16;;;;;;;1.03;0.80;;;;;;;21.52;51.89;99571.03;5040305;28;41593;-82
2021/07/21 07:06:21;;;;;;;1.67;1.23;;;;;;;21.59;51.86;99553.28;5066823;28;42053;-86
2021/07/21 07:09:08;;;;;;;2.47;1.63;;;;;;;21.88;51.49;99565.78;5063839;28;41355;-76
2021/07/21 07:11:55;;;;;;;1.07;0.97;;;;;;;22.13;50.73;99565.09;5052234;28;40290;-80
2021/07/21 07:14:24;;;;;;;1.50;1.27;;;;;;;22.29;49.93;99572.50;5056121;28;40896;-77
2021/07/21 07:16:51;;;;;;;1.40;1.20;;;;;;;22.28;50.59;99544.66;5078910;28;43124;-79
2021/07/21 07:19:19;;;;;;;1.60;1.10;;;;;;;22.54;50.17;99575.28;5075484;28;41317;-78
2021/07/21 07:21:47;;;;;;;1.73;1.33;;;;;;;22.58;49.95;99560.50;5064526;28;39933;-77
2021/07/21 07:24:15;;;;;;;1.97;1.17;;;;;;;22.85;49.91;99569.53;5054552;28;40628;-81
2021/07/21 07:26:43;;;;;;;0.73;0.73;;;;;;;23.07;48.31;99579.81;5049272;28;41916;-81
2021/07/21 07:29:13;;;;;;;1.90;1.80;;;;;;;23.43;47.83;99574.31;5066942;28;41339;-84
2021/07/21 07:31:41;;;;;;;1.60;1.50;;;;;;;23.97;46.66;99563.09;5074082;28;40256;-81
2021/07/21 07:34:08;;;;;;;1.30;1.20;;;;;;;24.94;45.19;99584.13;5092608;28;41947;-82
2021/07/21 07:36:37;;;;;;;1.60;1.50;;;;;;;26.20;42.33;99589.75;5088880;28;42755;-79
2021/07/21 07:39:07;;;;;;;1.20;1.10;;;;;;;27.76;39.44;99605.50;5071316;28;42290;-78
2021/07/21 07:41:35;;;;;;;0.90;0.90;;;;;;;29.39;36.36;99615.75;5087737;28;40871;-81
2021/07/21 07:44:04;;;;;;;1.70;1.37;;;;;;;30.84;33.89;99627.44;5111868;28;43050;-80
2021/07/21 07:46:34;;;;;;;0.73;0.70;;;;;;;31.50;33.17;99619.28;5108409;28;43041;-84
2021/07/21 07:49:03;;;;;;;1.63;1.03;;;;;;;31.26;33.21;99609.81;5073392;28;41516;-78
2021/07/21 07:51:31;;;;;;;1.60;1.37;;;;;;;30.69;32.81;99629.50;5073029;28;39091;-81
2021/07/21 07:53:59;;;;;;;1.07;1.00;;;;;;;30.33;34.02;99618.84;5091603;28;42142;-79
2021/07/21 07:56:26;;;;;;;0.90;0.90;;;;;;;30.30;33.45;99606.41;5071249;28;42924;-80
2021/07/21 07:58:54;;;;;;;0.80;0.80;;;;;;;30.51;33.44;99599.16;5089835;28;43506;-84
2021/07/21 08:01:22;;;;;;;1.33;1.23;;;;;;;31.51;31.72;99623.72;5063651;28;39806;-78
2021/07/21 08:03:52;;;;;;;1.63;1.40;;;;;;;32.29;30.65;99627.34;5054416;28;42019;-86
2021/07/21 08:06:20;;;;;;;1.30;1.20;;;;;;;32.92;29.84;99638.41;5072602;28;43857;-86
2021/07/21 08:08:47;;;;;;;1.13;1.03;;;;;;;32.82;30.20;99627.94;5071364;28;41294;-79
2021/07/21 08:11:16;;;;;;;1.03;0.90;;;;;;;32.33;30.31;99639.56;5051512;28;40190;-83
2021/07/21 08:13:44;;;;;;;1.43;1.10;;;;;;;31.83;31.63;99618.41;5049976;28;41788;-88
2021/07/21 08:16:12;;;;;;;0.87;0.87;;;;;;;31.13;32.64;99608.97;5034089;28;41996;-83
2021/07/21 08:18:40;;;;;;;3.50;2.07;;;;;;;30.43;32.17;99624.75;5034552;28;42405;-81
2021/07/21 08:21:09;;;;;;;1.90;1.70;;;;;;;30.22;32.59;99617.53;5066635;28;40540;-84
2021/07/21 08:23:37;;;;;;;1.93;1.53;;;;;;;30.43;32.73;99602.03;5067420;28;42121;-84
2021/07/21 08:26:05;;;;;;;1.73;1.50;;;;;;;30.52;31.40;99625.44;5051659;28;43025;-80
2021/07/21 08:28:35;;;;;;;1.10;0.97;;;;;;;30.33;33.74;99602.44;5067903;28;42445;-83
2021/07/21 08:31:03;;;;;;;1.07;1.07;;;;;;;30.23;32.41;99611.03;5051314;28;39964;-85
2021/07/21 08:33:30;;;;;;;1.53;1.30;;;;;;;30.13;31.63;99599.66;5018805;28;40779;-82
2021/07/21 08:35:58;;;;;;;1.20;1.07;;;;;;;30.61;32.20;99599.63;5051509;28;43049;-82
2021/07/21 08:38:27;;;;;;;1.23;0.90;;;;;;;31.18;31.85;99595.50;5066082;28;42192;-85
2021/07/21 08:40:57;;;;;;;1.43;1.33;;;;;;;31.98;31.06;99613.53;5054332;28;38903;-77
2021/07/21 08:43:25;;;;;;;0.90;0.90;;;;;;;32.89;29.94;99627.88;5089232;28;41906;-79
2021/07/21 08:45:53;;;;;;;1.40;1.30;;;;;;;34.43;28.63;99630.69;5070462;28;42108;-79
2021/07/21 08:48:22;;;;;;;1.50;1.40;;;;;;;36.40;24.89;99653.28;5074904;28;43248;-79
2021/07/21 08:50:49;;;;;;;1.40;1.30;;;;;;;38.17;22.78;99671.38;5091191;28;40618;-80
2021/07/21 08:53:19;;;;;;;1.65;1.42;;;;;;;39.57;21.16;99666.84;5072896;28;41995;-84
2021/07/21 08:55:49;;;;;;;1.20;1.10;;;;;;;40.85;21.03;99659.81;5067342;28;41693;-86
2021/07/21 08:58:20;;;;;;;0.90;0.90;;;;;;;41.86;18.27;99688.81;5087496;28;41369;-91
2021/07/21 09:00:51;;;;;;;1.20;1.20;;;;;;;42.59;18.58;99667.75;5072239;28;39195;-89
2021/07/21 09:03:21;;;;;;;1.35;1.25;;;;;;;42.92;17.49;99693.22;5077208;28;41951;-86
2021/07/21 09:05:50;;;;;;;1.35;1.25;;;;;;;41.95;18.17;99687.13;5072087;28;41963;-87
2021/07/21 09:08:17;;;;;;;1.17;1.02;;;;;;;40.45;19.72;99654.09;5087900;28;41397;-84
2021/07/21 09:10:48;;;;;;;1.30;1.20;;;;;;;39.32;20.55;99642.53;5070424;28;38822;-81
2021/07/21 09:13:16;;;;;;;1.35;1.25;;;;;;;38.82;21.50;99656.69;5089320;28;41608;-81
2021/07/21 09:15:46;;;;;;;1.97;1.40;;;;;;;37.95;21.33;99650.03;5091573;28;42364;-81
2021/07/21 09:18:16;;;;;;;1.20;1.10;;;;;;;37.09;22.08;99656.88;5074354;28;42608;-81
2021/07/21 09:20:46;;;;;;;1.10;1.10;;;;;;;36.46;23.56;99624.72;5054483;28;38829;-85
2021/07/21 09:23:15;;;;;;;1.53;1.37;;;;;;;36.39;24.04;99617.66;5083278;28;40580;-87
2021/07/21 09:25:44;;;;;;;2.90;1.77;;;;;;;36.42;23.19;99639.25;5078175;28;43152;-84
2021/07/21 09:28:14;;;;;;;1.87;1.77;;;;;;;36.00;23.37;99631.97;5060930;28;41497;-91
2021/07/21 09:30:44;;;;;;;1.53;1.40;;;;;;;35.78;24.40;99619.06;5093212;28;39918;-82
2021/07/21 09:33:14;;;;;;;1.23;1.23;;;;;;;36.31;24.63;99600.41;5094486;28;42562;-83
2021/07/21 09:35:44;;;;;;;1.53;1.10;;;;;;;36.71;23.00;99634.63;5112217;28;42828;-81
2021/07/21 09:38:14;;;;;;;1.20;1.10;;;;;;;36.39;23.51;99607.44;5086195;28;42359;-81
2021/07/21 09:40:44;;;;;;;1.30;1.20;;;;;;;35.64;24.19;99621.19;5112220;28;41642;-81
2021/07/21 09:43:15;;;;;;;1.10;1.10;;;;;;;34.65;25.84;99610.91;5096041;28;41983;-83
2021/07/21 09:45:44;;;;;;;1.10;1.00;;;;;;;33.82;26.17;99595.84;5057211;28;41557;-83
2021/07/21 09:48:14;;;;;;;1.60;1.20;;;;;;;33.57;26.26;99597.78;5079071;28;42565;-80
2021/07/21 09:50:43;;;;;;;1.10;1.00;;;;;;;33.49;27.17;99584.34;5076709;28;39254;-84
2021/07/21 09:53:13;;;;;;;1.07;0.87;;;;;;;34.04;26.35;99588.00;5074033;28;40729;-83
2021/07/21 09:55:43;;;;;;;1.20;1.20;;;;;;;34.30;26.17;99597.00;5093863;28;42846;-82
2021/07/21 09:58:13;;;;;;;1.10;1.10;;;;;;;35.35;25.51;99608.41;5074024;28;41802;-81
2021/07/21 10:00:43;;;;;;;1.27;1.17;;;;;;;36.69;24.10;99608.09;5051977;28;40108;-80
2021/07/21 10:03:24;;;;;;;1.17;1.13;;;;;;;37.50;22.79;99629.94;5068001;28;40575;-89
2021/07/21 10:05:58;;;;;;;1.33;1.10;;;;;;;37.89;21.53;99633.59;5036833;28;41410;-89
2021/07/21 10:08:41;;;;;;;0.87;0.87;;;;;;;37.95;21.66;99619.59;5090735;28;43209;-88
2021/07/21 10:11:29;;;;;;;1.20;1.10;;;;;;;37.70;23.27;99610.94;5073936;28;39294;-87
2021/07/21 10:14:13;;;;;;;1.70;1.30;;;;;;;37.24;23.01;99610.19;5057300;28;40685;-86
2021/07/21 10:16:43;;;;;;;1.33;1.23;;;;;;;36.97;23.59;99604.44;5069328;28;42180;-86
2021/07/21 10:19:15;;;;;;;1.53;1.10;;;;;;;36.75;23.42;99609.00;5078358;28;42111;-85
2021/07/21 10:21:45;;;;;;;1.80;1.50;;;;;;;36.47;23.48;99609.84;5090612;28;40056;-83
2021/07/21 10:24:14;;;;;;;0.90;0.90;;;;;;;36.66;24.03;99607.72;5073423;28;40757;-83
2021/07/21 10:26:43;;;;;;;1.40;1.30;;;;;;;37.03;24.02;99608.13;5072885;28;41793;-85
2021/07/21 10:29:13;;;;;;;1.20;1.10;;;;;;;37.35;22.13;99612.00;5073630;28;41557;-82
2021/07/21 10:31:42;;;;;;;1.17;1.03;;;;;;;37.84;21.08;99625.22;5098785;28;41102;-83
2021/07/21 10:34:10;;;;;;;0.93;0.93;;;;;;;37.59;21.45;99618.19;5073108;28;42470;-87
2021/07/21 10:36:39;;;;;;;1.43;1.23;;;;;;;36.97;20.70;99631.22;5052536;28;42912;-84
2021/07/21 10:39:11;;;;;;;1.37;1.00;;;;;;;36.22;21.90;99620.38;5052857;28;41945;-87
2021/07/21 10:41:40;;;;;;;1.27;1.10;;;;;;;35.80;23.62;99601.22;5073840;28;40094;-80
2021/07/21 10:44:10;;;;;;;1.77;1.30;;;;;;;35.75;22.97;99616.78;5069753;28;44273;-81
2021/07/21 10:46:52;;;;;;;1.40;1.30;;;;;;;36.27;22.38;99609.41;5079314;28;42066;-80
2021/07/21 10:49:28;;;;;;;1.60;1.40;;;;;;;36.32;23.06;99612.28;5093187;28;42169;-81
2021/07/21 10:55:28;;;;;;;1.07;0.87;;;;;;;35.52;23.88;99601.06;5051804;28;42357;-79
2021/07/21 11:00:55;;;;;;;1.20;1.10;;;;;;;34.67;24.17;99592.25;5070369;28;42670;-82
2021/07/21 11:03:25;;;;;;;1.10;1.00;;;;;;;34.59;23.52;99605.28;5052765;28;40964;-82
2021/07/21 11:06:02;;;;;;;1.30;1.20;;;;;;;34.54;23.88;99599.63;5071210;28;42464;-89
2021/07/21 11:08:31;;;;;;;1.07;1.07;;;;;;;34.69;23.57;99601.97;5053850;28;42950;-80
2021/07/21 11:11:12;;;;;;;1.17;1.07;;;;;;;34.92;24.17;99606.72;5071967;28;42542;-79
2021/07/21 11:13:41;;;;;;;1.30;1.20;;;;;;;35.03;24.48;99592.13;5072143;28;40933;-81
2021/07/21 11:16:40;;;;;;;1.20;1.10;;;;;;;35.24;24.64;99582.47;5080351;28;42104;-81
2021/07/21 11:19:46;;;;;;;0.90;0.87;;;;;;;35.44;26.20;99568.38;5089682;28;44062;-81
2021/07/21 11:22:26;;;;;;;0.90;0.90;;;;;;;35.28;23.99;99590.06;5056366;28;41032;-80
2021/07/21 11:25:14;;;;;;;1.27;1.17;;;;;;;35.02;25.01;99584.13;5055125;28;41974;-80
2021/07/21 11:27:49;;;;;;;1.20;1.10;;;;;;;34.71;24.09;99576.97;5054491;28;41072;-78
2021/07/21 11:30:44;;;;;;;2.70;1.30;;;;;;;34.53;26.63;99559.44;5057888;28;42210;-79
2021/07/21 11:33:54;;;;;;;0.93;0.93;;;;;;;34.53;26.59;99562.19;5088665;28;41545;-82
2021/07/21 11:36:49;;;;;;;1.13;0.93;;;;;;;34.39;26.73;99552.44;5057112;28;39968;-79
2021/07/21 11:39:41;;;;;;;1.27;0.90;;;;;;;34.41;25.34;99566.81;5051282;28;42086;-81
2021/07/21 11:42:12;;;;;;;1.67;1.57;;;;;;;34.69;25.91;99540.59;5034440;28;41695;-80
2021/07/21 11:44:41;;;;;;;3.70;2.80;;;;;;;35.26;25.82;99561.91;5054923;28;42130;-80
2021/07/21 11:47:13;;;;;;;1.80;1.70;;;;;;;35.35;24.74;99556.06;5065582;28;40373;-83
2021/07/21 11:49:48;;;;;;;1.33;1.13;;;;;;;36.04;26.25;99548.78;5109134;28;42017;-81
2021/07/21 11:52:19;;;;;;;1.27;1.17;;;;;;;37.00;23.38;99553.38;5093172;28;42756;-83
2021/07/21 11:54:48;;;;;;;0.97;0.97;;;;;;;38.53;22.46;99565.56;5056287;28;42935;-80
2021/07/21 11:57:16;;;;;;;3.13;1.77;;;;;;;39.83;21.13;99571.59;5086546;28;40670;-84
2021/07/21 11:59:46;;;;;;;1.00;0.93;;;;;;;41.06;19.49;99580.06;5068891;28;42009;-83
2021/07/21 12:02:15;;;;;;;1.20;1.10;;;;;;;42.01;18.64;99585.00;5052956;28;42874;-84
2021/07/21 12:04:46;;;;;;;1.55;1.45;;;;;;;42.70;17.60;99584.09;5055025;28;41326;-87
2021/07/21 12:07:15;;;;;;;1.20;1.10;;;;;;;43.36;17.32;99601.19;5074036;28;39218;-85
2021/07/21 12:09:46;;;;;;;1.40;1.30;;;;;;;43.36;15.67;99606.78;5110694;28;41902;-88
2021/07/21 12:12:16;;;;;;;1.08;0.98;;;;;;;43.95;17.12;99586.06;5075494;28;42156;-87
2021/07/21 12:14:51;;;;;;;1.17;1.08;;;;;;;44.85;16.29;99588.81;5053809;28;41961;-86